ADDS METAR Data INFO
IDs: Format: Raw Decoded Include TAF

Data at: 0656 UTC 18 Feb 2018

KSAT 180651Z 04006KT 10SM BKN013 OVC020 14/08 A3012 RMK AO2 SLP190 T01390083 $
KSAT 180551Z 04004KT 10SM BKN014 OVC026 14/09 A3013 RMK AO2 SLP193 T01390094 10172 20133 401940128 58005 $
KSAT 180451Z 03006KT 10SM BKN024 OVC030 13/09 A3014 RMK AO2 SLP195 T01330089 $
KSAT 180351Z 06007KT 10SM SCT045 SCT060 13/09 A3015 RMK AO2 SLP199 T01330094 $
KSAT 180251Z 07009KT 10SM BKN055 14/10 A3015 RMK AO2 SLP198 T01440100 53018 $
KSAT 180151Z 07008KT 10SM SCT036 BKN049 16/11 A3012 RMK AO2 SLP189 T01610111 $
KSAT 180051Z 06008KT 10SM SCT016 OVC036 16/13 A3011 RMK AO2 SLP184 T01610128 $
KSAT 172351Z 05008KT 10SM FEW016 OVC029 17/14 A3010 RMK AO2 SLP179 VCSH NE 60000 T01720139 10194 20133 53009 $
KSAT 172251Z 05009KT 10SM OVC016 18/14 A3009 RMK AO2 SLP176 T01830139 $
KSAT 172151Z 03005KT 10SM OVC016 19/13 A3007 RMK AO2 SLP170 T01940133 $
KSAT 172051Z 00000KT 10SM OVC013 18/13 A3007 RMK AO2 SLP169 60000 T01830128 56026 $
KSAT 171951Z 12005KT 10SM OVC011 17/12 A3007 RMK AO2 SLP169 T01720122
KSAT 171914Z 12005KT 10SM BKN012 OVC085 16/12 A3009 RMK AO2 T01610117
KSAT 171851Z 13008KT 10SM FEW015 SCT025 OVC032 16/12 A3010 RMK AO2 DZB1758E33 SLP180 P0000 T01560117
KSAT 171834Z 10005KT 10SM SCT009 BKN015 OVC029 14/11 A3012 RMK AO2 DZB1758E33 PRESFR P0000 T01390111
KSAT 171815Z 03008KT 5SM -DZ OVC009 13/11 A3014 RMK AO2 DZB1758 P0000 T01330106
KSAT 171751Z 36008KT 10SM OVC011 13/11 A3015 RMK AO2 SLP197 VCSH N 60000 T01330106 10144 20128 51010
KSAT 171651Z 36010KT 10SM OVC010 14/11 A3014 RMK AO2 SLP192 T01440106
KSAT 171551Z 03008KT 10SM OVC009 14/12 A3013 RMK AO2 SLP190 T01390117
KSAT 171451Z 05006KT 10SM OVC009 13/12 A3011 RMK AO2 SLP185 60000 T01330117 51018
KSAT 171351Z 36007KT 8SM OVC009 13/11 A3010 RMK AO2 RAB07E17 SLP179 P0000 T01330111
KSAT 171251Z 01005KT 10SM OVC011 13/11 A3008 RMK AO2 RAB19E43 SLP174 P0000 T01330106
KSAT 171151Z 34007KT 10SM OVC010 14/08 A3006 RMK AO2 SLP165 60000 T01440083 10161 20144 53005
KSAT 171107Z 02003KT 10SM OVC010 14/09 A3004 RMK AO2 T01440089
KSAT 171051Z 07003KT 10SM OVC009 14/08 A3002 RMK AO2 RAB0954E04 SLP153 P0000 T01440083
KSAT 171035Z 11005KT 10SM OVC009 14/08 A3002 RMK AO2 RAB0954E04 P0000 T01440083
KSAT 170951Z 08003KT 10SM OVC011 15/08 A3003 RMK AO2 SLP156 T01500078
KSAT 170851Z 10005KT 10SM OVC014 15/07 A3004 RMK AO2 SLP159 T01500067 58018
KSAT 170839Z 10005KT 10SM OVC014 15/06 A3004 RMK AO2 T01500061
KSAT 170751Z 08005KT 10SM OVC017 15/06 A3006 RMK AO2 SLP165 T01500056
KSAT 170651Z 06007KT 10SM OVC019 16/05 A3008 RMK AO2 SLP172 T01560050
KSAT 170551Z 07011KT 10SM OVC021 17/06 A3010 RMK AO2 SLP177 T01670056 10194 20167 402560161 58004
KSAT 170451Z 07005KT 10SM OVC023 18/07 A3010 RMK AO2 SLP180 T01780072
KSAT 170351Z 05006KT 10SM OVC023 18/08 A3011 RMK AO2 SLP184 T01780083
KSAT 170251Z 05006KT 10SM OVC024 18/08 A3011 RMK AO2 SLP182 T01830083 53006
KSAT 170151Z 04009KT 10SM OVC023 18/09 A3010 RMK AO2 SLP178 T01830094
KSAT 170051Z 02007KT 10SM BKN024 BKN035 OVC055 19/09 A3009 RMK AO2 SLP175 T01890094
KSAT 162351Z 02010G16KT 10SM BKN023 OVC043 19/10 A3009 RMK AO2 SLP175 T01940100 10256 20194 51001
KSAT 162251Z 03010G17KT 10SM OVC022 19/10 A3009 RMK AO2 SLP175 T01940100
KSAT 162151Z 02007KT 10SM OVC025 20/12 A3009 RMK AO2 SLP176 T02000122
KSAT 162051Z 02009G18KT 10SM OVC029 21/14 A3009 RMK AO2 SLP173 T02060139 55018
KSAT 162021Z COR 02011G20KT 10SM OVC034 21/14 A3009 RMK AO2 T02110144
KSAT 162004Z 02014G19KT 10SM OVC034 24/16 A3008 RMK AO2 WSHFT 03 FROPA T02390161
KSAT 161951Z 05009KT 10SM BKN030 OVC036 25/17 A3008 RMK AO2 SLP171 T02500167
KSAT 161921Z 07006KT 10SM OVC030 25/17 A3009 RMK AO2 T02500172